Time;durP1;ratioP1;P1;durP2;ratioP2;P2;SDS_P1;SDS_P2;PMS_P1;PMS_P2;Temp;Humidity;BMP_temperature;BMP_pressure;BME280_temperature;BME280_humidity;BME280_pressure;Samples;Min_cycle;Max_cycle;Signal;HPM_P1;HPM_P2
2024/01/17 00:01:57;;;;;;;24.08;14.30;;;;;;;-2.19;100.00;99064.34;4992381;28;20087;-73
2024/01/17 00:04:23;;;;;;;31.77;15.07;;;;;;;-2.31;100.00;99027.91;5025427;28;20449;-73
2024/01/17 00:06:48;;;;;;;26.73;15.13;;;;;;;-2.21;100.00;99041.91;4992165;28;20065;-73
2024/01/17 00:09:15;;;;;;;;;;;;;;;-2.24;100.00;99034.31;4993018;28;20553;-73
2024/01/17 00:11:42;;;;;;;28.40;16.15;;;;;;;-2.35;100.00;99017.69;5008891;28;20031;-72
2024/01/17 00:14:11;;;;;;;30.05;15.80;;;;;;;-2.23;100.00;99031.56;5008556;28;20048;-73
2024/01/17 00:16:37;;;;;;;26.45;16.20;;;;;;;-2.26;100.00;99018.75;5026342;28;20041;-73
2024/01/17 00:19:02;;;;;;;26.58;14.85;;;;;;;-2.24;100.00;99000.34;4992101;28;20033;-73
2024/01/17 00:21:28;;;;;;;;;;;;;;;-2.42;100.00;98979.09;5009009;28;20040;-73
2024/01/17 00:23:54;;;;;;;37.00;16.58;;;;;;;-2.40;100.00;98991.09;4991819;28;19913;-72
2024/01/17 00:26:19;;;;;;;;;;;;;;;-2.32;100.00;98993.09;5008617;28;20060;-72
2024/01/17 00:28:44;;;;;;;29.38;16.40;;;;;;;-2.30;100.00;98999.03;5008383;28;19913;-73
2024/01/17 00:31:10;;;;;;;;;;;;;;;-2.46;100.00;98973.31;5008963;28;20033;-72
2024/01/17 00:33:35;;;;;;;47.77;16.77;;;;;;;-2.29;100.00;98989.41;5007950;28;20211;-72
2024/01/17 00:36:01;;;;;;;;;;;;;;;-2.36;100.00;98973.41;4986655;28;20058;-73
2024/01/17 00:38:26;;;;;;;;;;;;;;;-2.38;100.00;98960.44;4994743;28;19917;-73
2024/01/17 00:40:51;;;;;;;;;;;;;;;-2.22;100.00;98964.44;4999232;28;19913;-72
2024/01/17 00:43:17;;;;;;;33.27;17.37;;;;;;;-2.39;100.00;98930.03;5008458;28;20004;-72
2024/01/17 00:45:43;;;;;;;33.08;15.23;;;;;;;-2.41;100.00;98910.19;5026064;28;20606;-73
2024/01/17 00:48:08;;;;;;;27.17;15.30;;;;;;;-2.21;100.00;98932.91;5025886;28;20052;-73
2024/01/17 00:50:34;;;;;;;;;;;;;;;-2.32;100.00;98893.75;5008986;28;20495;-73
2024/01/17 00:52:59;;;;;;;38.30;16.48;;;;;;;-2.36;100.00;98881.91;5008114;28;20276;-73
2024/01/17 00:55:24;;;;;;;;;;;;;;;-2.40;100.00;98880.50;5026137;28;20490;-73
2024/01/17 00:57:50;;;;;;;30.33;15.05;;;;;;;-2.33;100.00;98882.47;5025758;28;20313;-73
2024/01/17 01:00:15;;;;;;;;;;;;;;;-2.35;100.00;98862.66;5026411;28;20037;-73
2024/01/17 01:02:42;;;;;;;33.78;15.15;;;;;;;-2.29;100.00;98853.50;5002950;28;19917;-73
2024/01/17 01:05:11;;;;;;;29.35;14.45;;;;;;;-2.33;100.00;98839.84;5007786;28;20026;-72
2024/01/17 01:07:36;;;;;;;29.83;15.10;;;;;;;-2.36;100.00;98829.63;4991600;28;20096;-73
2024/01/17 01:10:02;;;;;;;26.98;15.23;;;;;;;-2.29;100.00;98845.66;5007896;28;20045;-73
2024/01/17 01:12:27;;;;;;;;;;;;;;;-2.28;100.00;98835.03;5026257;28;20036;-72
2024/01/17 01:14:52;;;;;;;26.23;14.23;;;;;;;-2.30;100.00;98810.81;5025770;28;19917;-72
2024/01/17 01:17:18;;;;;;;30.63;15.88;;;;;;;-2.40;100.00;98783.78;5011977;28;20029;-72
2024/01/17 01:19:43;;;;;;;;;;;;;;;-2.38;100.00;98785.31;5030112;28;20079;-72
2024/01/17 01:22:08;;;;;;;30.60;17.23;;;;;;;-2.48;100.00;98771.38;4995310;28;19920;-73
2024/01/17 01:24:34;;;;;;;;;;;;;;;-2.41;100.00;98782.13;5011954;28;20511;-72
2024/01/17 01:26:59;;;;;;;30.30;15.82;;;;;;;-2.45;100.00;98778.94;5029178;28;19917;-73
2024/01/17 01:29:25;;;;;;;;;;;;;;;-2.58;100.00;98755.59;5029960;28;20064;-73
2024/01/17 01:31:50;;;;;;;32.63;15.53;;;;;;;-2.62;100.00;98742.97;5029317;28;19920;-73
2024/01/17 01:34:15;;;;;;;;;;;;;;;-2.45;100.00;98775.53;5012045;28;20854;-72
2024/01/17 01:36:40;;;;;;;32.33;15.60;;;;;;;-2.55;100.00;98755.38;5029371;28;20517;-73
2024/01/17 01:39:06;;;;;;;30.52;16.50;;;;;;;-2.53;100.00;98741.34;5011458;28;20088;-73
2024/01/17 01:41:31;;;;;;;;;;;;;;;-2.58;100.00;98732.09;5024110;28;20048;-72
2024/01/17 01:43:56;;;;;;;35.53;17.02;;;;;;;-2.60;100.00;98736.66;5017258;28;19909;-73
2024/01/17 01:46:26;;;;;;;;;;;;;;;-2.61;100.00;98734.16;5008816;28;20048;-73
2024/01/17 01:48:53;;;;;;;32.15;16.65;;;;;;;-2.49;100.00;98732.31;4999490;28;20011;-72
2024/01/17 01:51:19;;;;;;;33.53;14.68;;;;;;;-2.49;100.00;98738.34;5019437;28;20056;-72
2024/01/17 01:53:48;;;;;;;33.05;17.20;;;;;;;-2.50;100.00;98725.44;5013643;28;20485;-72
2024/01/17 01:56:18;;;;;;;39.58;15.40;;;;;;;-2.59;100.00;98706.94;4998289;28;20063;-73
2024/01/17 01:58:46;;;;;;;27.23;16.30;;;;;;;-2.76;100.00;98684.03;5013685;28;20133;-72
2024/01/17 02:01:14;;;;;;;30.83;16.60;;;;;;;-2.72;100.00;98698.47;5015225;28;20037;-72
2024/01/17 02:03:43;;;;;;;32.28;16.33;;;;;;;-2.61;100.00;98728.94;5017939;28;20097;-73
2024/01/17 02:06:10;;;;;;;34.90;17.52;;;;;;;-2.49;100.00;98746.19;5015623;28;20053;-73
2024/01/17 02:08:36;;;;;;;35.88;17.45;;;;;;;-2.58;100.00;98715.59;5013839;28;20144;-73
2024/01/17 02:11:01;;;;;;;34.42;16.02;;;;;;;-2.49;100.00;98734.91;4997798;28;20539;-73
2024/01/17 02:13:27;;;;;;;;;;;;;;;-2.43;100.00;98737.03;4995090;28;20030;-73
2024/01/17 02:15:52;;;;;;;;;;;;;;;-2.59;100.00;98712.16;5013983;28;19948;-73
2024/01/17 02:18:18;;;;;;;40.22;18.10;;;;;;;-2.46;100.00;98747.72;5006440;28;19909;-73
2024/01/17 02:20:43;;;;;;;;;;;;;;;-2.44;100.00;98751.03;5013521;28;20519;-72
2024/01/17 02:23:41;;;;;;;34.65;18.15;;;;;;;-2.47;100.00;98746.06;5020826;28;19909;-72
2024/01/17 02:26:07;;;;;;;38.35;19.77;;;;;;;-2.54;100.00;98724.84;4969425;28;20053;-73
2024/01/17 02:28:33;;;;;;;36.65;16.90;;;;;;;-2.38;100.00;98755.75;5011851;28;20025;-73
2024/01/17 02:30:58;;;;;;;;;;;;;;;-2.22;100.00;98774.41;4996887;28;20508;-72
2024/01/17 02:33:24;;;;;;;34.80;17.70;;;;;;;-2.26;100.00;98749.47;5013486;28;19971;-73
2024/01/17 02:35:49;;;;;;;;;;;;;;;-2.14;100.00;98739.78;5012806;28;20029;-73
2024/01/17 02:38:14;;;;;;;31.80;15.63;;;;;;;-2.27;100.00;98697.31;5008608;28;19956;-72
2024/01/17 02:40:39;;;;;;;;;;;;;;;-2.22;100.00;98703.00;4980651;28;20331;-73
2024/01/17 02:43:05;;;;;;;32.40;16.30;;;;;;;-2.12;100.00;98694.22;4997926;28;20418;-72
2024/01/17 02:45:31;;;;;;;;;;;;;;;-2.17;100.00;98675.50;4994807;28;20157;-73
2024/01/17 02:47:56;;;;;;;37.35;16.17;;;;;;;-2.21;100.00;98662.81;5013290;28;19917;-72
2024/01/17 02:50:22;;;;;;;;;;;;;;;-1.97;100.00;98702.56;4996346;28;20071;-73
2024/01/17 02:52:47;;;;;;;;;;;;;;;-2.03;100.00;98649.94;4982178;28;19913;-72
2024/01/17 02:55:15;;;;;;;28.38;16.42;;;;;;;-2.12;100.00;98614.97;5013781;28;19913;-73
2024/01/17 02:57:41;;;;;;;36.80;15.30;;;;;;;-2.10;100.00;98599.97;5004947;28;20140;-73
2024/01/17 03:00:08;;;;;;;31.08;15.32;;;;;;;-1.98;100.00;98609.34;5015436;28;20444;-73
2024/01/17 03:02:34;;;;;;;30.27;14.63;;;;;;;-1.95;100.00;98585.53;4995634;28;20088;-73
2024/01/17 03:04:59;;;;;;;40.75;17.80;;;;;;;-1.88;100.00;98585.00;4992195;28;20480;-72
2024/01/17 03:07:24;;;;;;;;;;;;;;;-1.85;100.00;98553.31;5012837;28;20439;-73
2024/01/17 03:09:50;;;;;;;26.77;14.10;;;;;;;-1.87;100.00;98529.94;4995521;28;20438;-73
2024/01/17 03:12:15;;;;;;;;;;;;;;;-1.95;100.00;98464.41;4993950;28;20126;-72
2024/01/17 03:14:41;;;;;;;28.63;13.25;;;;;;;-1.81;100.00;98479.69;5009581;28;19927;-73
2024/01/17 03:17:06;;;;;;;;;;;;;;;-1.61;100.00;98466.59;5009532;28;20033;-72
2024/01/17 03:19:32;;;;;;;29.35;14.25;;;;;;;-1.59;100.00;98446.31;4997940;28;19959;-73
2024/01/17 03:21:57;;;;;;;29.10;14.07;;;;;;;-1.64;100.00;98404.91;5026865;28;20036;-73
2024/01/17 03:24:23;;;;;;;28.15;13.07;;;;;;;-1.62;100.00;98381.19;5027130;28;20032;-73
2024/01/17 03:26:48;;;;;;;;;;;;;;;-1.65;100.00;98339.63;4993207;28;20037;-72
2024/01/17 03:29:13;;;;;;;;;;;;;;;-1.58;100.00;98335.47;5009855;28;20647;-72
2024/01/17 03:31:38;;;;;;;25.03;14.17;;;;;;;-1.63;100.00;98299.25;5022720;28;19983;-72
2024/01/17 03:34:05;;;;;;;21.70;12.07;;;;;;;-1.63;100.00;98288.78;5007768;28;20041;-72
2024/01/17 03:36:30;;;;;;;23.48;12.40;;;;;;;-1.54;100.00;98290.53;5026719;28;20476;-73
2024/01/17 03:38:55;;;;;;;;;;;;;;;-1.62;100.00;98253.78;5009416;28;20030;-72
2024/01/17 03:41:21;;;;;;;25.83;14.13;;;;;;;-1.53;100.00;98270.41;5026988;28;19921;-72
2024/01/17 03:43:47;;;;;;;21.60;11.88;;;;;;;-1.61;100.00;98228.47;5008907;28;20111;-73
2024/01/17 03:46:12;;;;;;;;;;;;;;;-1.46;100.00;98249.72;5009159;28;20037;-72
2024/01/17 03:48:37;;;;;;;22.17;11.83;;;;;;;-1.51;100.00;98219.59;5026886;28;20021;-73
2024/01/17 03:51:03;;;;;;;;;;;;;;;-1.51;100.00;98195.22;5027173;28;20033;-72
2024/01/17 03:53:28;;;;;;;25.63;11.83;;;;;;;-1.44;100.00;98185.78;5026778;28;19913;-73
2024/01/17 03:55:53;;;;;;;;;;;;;;;-1.25;100.00;98189.25;4992445;28;20041;-72
2024/01/17 03:58:19;;;;;;;21.27;11.67;;;;;;;-1.47;100.00;98128.53;5020734;28;19920;-73
2024/01/17 04:00:44;;;;;;;20.30;11.43;;;;;;;-1.33;100.00;98145.50;5003740;28;20281;-73
2024/01/17 04:03:13;;;;;;;25.17;10.93;;;;;;;-1.38;100.00;98119.78;5013500;28;20116;-73
2024/01/17 04:05:40;;;;;;;23.45;11.80;;;;;;;-1.29;100.00;98116.25;5008112;28;20017;-73
2024/01/17 04:08:05;;;;;;;21.60;11.00;;;;;;;-1.55;100.00;98016.75;4991760;28;20116;-73
2024/01/17 04:10:49;;;;;;;20.88;10.50;;;;;;;-1.44;100.00;98057.56;5011406;28;20106;-72
2024/01/17 04:13:33;;;;;;;21.77;11.00;;;;;;;-1.36;100.00;98083.81;5026028;28;20044;-73
2024/01/17 04:16:18;;;;;;;20.17;10.88;;;;;;;-1.25;100.00;98074.06;5026319;28;20458;-72
2024/01/17 04:19:01;;;;;;;24.70;10.48;;;;;;;-1.29;100.00;98058.66;5026085;28;20428;-73
2024/01/17 04:21:45;;;;;;;26.35;12.05;;;;;;;-1.32;100.00;98009.22;5025669;28;20036;-72
2024/01/17 04:24:29;;;;;;;16.67;9.57;;;;;;;-1.31;100.00;97992.53;5025863;28;20048;-72
2024/01/17 04:27:13;;;;;;;19.73;10.52;;;;;;;-1.42;100.00;97930.00;5010745;28;20040;-72
2024/01/17 04:29:58;;;;;;;19.17;10.18;;;;;;;-1.36;100.00;97958.16;5025450;28;20609;-72
2024/01/17 04:32:42;;;;;;;24.45;10.95;;;;;;;-1.23;100.00;97949.88;5025737;28;20072;-72
2024/01/17 04:35:26;;;;;;;15.27;9.10;;;;;;;-1.32;100.00;97888.00;5019281;28;20121;-73
2024/01/17 04:38:10;;;;;;;18.83;10.20;;;;;;;-1.31;100.00;97887.84;5025362;28;20041;-72
2024/01/17 04:40:54;;;;;;;19.00;8.18;;;;;;;-1.22;100.00;97852.03;5009937;28;20044;-73
2024/01/17 04:43:40;;;;;;;17.83;9.13;;;;;;;-1.31;100.00;97796.22;5020135;28;20036;-72
2024/01/17 04:46:24;;;;;;;;;;;;;;;-1.31;100.00;97790.19;5026073;28;20048;-73
2024/01/17 04:49:08;;;;;;;18.00;8.37;;;;;;;-1.24;100.00;97793.81;5010749;28;19970;-72
2024/01/17 04:51:53;;;;;;;19.53;8.77;;;;;;;-1.35;100.00;97753.03;5010332;28;20125;-73
2024/01/17 04:54:37;;;;;;;22.27;9.10;;;;;;;-1.30;100.00;97769.06;5025605;28;20048;-72
2024/01/17 04:57:21;;;;;;;14.38;8.57;;;;;;;-1.22;100.00;97764.81;5010510;28;20768;-73
2024/01/17 05:00:05;;;;;;;17.52;8.88;;;;;;;-1.22;100.00;97751.72;5010529;28;20511;-73
2024/01/17 05:02:49;;;;;;;16.40;8.68;;;;;;;-1.45;100.00;97692.16;5006989;28;20048;-72
2024/01/17 05:05:33;;;;;;;22.88;10.45;;;;;;;-1.45;100.00;97710.50;5019334;28;20099;-73
2024/01/17 05:08:17;;;;;;;19.40;11.25;;;;;;;-1.54;100.00;97724.53;5025386;28;20102;-72
2024/01/17 05:11:01;;;;;;;20.88;10.30;;;;;;;-1.73;100.00;97783.97;5025315;28;20084;-72
2024/01/17 05:13:28;;;;;;;23.45;11.70;;;;;;;-1.64;100.00;97850.25;5007739;28;20065;-72
2024/01/17 05:15:53;;;;;;;21.05;10.82;;;;;;;-1.81;100.00;97866.81;5025271;28;20439;-72
2024/01/17 05:18:18;;;;;;;26.60;12.27;;;;;;;-2.05;100.00;97859.63;5007926;28;20083;-72
2024/01/17 05:20:44;;;;;;;28.85;13.18;;;;;;;-1.92;100.00;97947.16;4991438;28;20124;-72
2024/01/17 05:23:09;;;;;;;26.25;12.52;;;;;;;-2.07;100.00;97960.91;5007514;28;20028;-72
2024/01/17 05:25:34;;;;;;;29.80;12.65;;;;;;;-2.09;100.00;97975.94;4991189;28;20400;-72
2024/01/17 05:28:00;;;;;;;24.98;13.30;;;;;;;-2.27;100.00;97965.47;5025277;28;20024;-73
2024/01/17 05:30:25;;;;;;;;;;;;;;;-2.21;100.00;98002.28;5008067;28;20898;-72
2024/01/17 05:32:51;;;;;;;30.70;15.02;;;;;;;-2.20;100.00;98029.25;5025368;28;20371;-72
2024/01/17 05:35:17;;;;;;;31.55;12.48;;;;;;;-2.04;100.00;98080.88;5024768;28;20391;-73
2024/01/17 05:37:43;;;;;;;;;;;;;;;-2.06;100.00;98088.88;5025756;28;20017;-72
2024/01/17 05:40:10;;;;;;;28.20;13.35;;;;;;;-2.01;100.00;98076.19;4991239;28;20290;-73
2024/01/17 05:42:36;;;;;;;25.35;11.75;;;;;;;-2.31;100.00;98013.78;5024923;28;20037;-72
2024/01/17 05:45:02;;;;;;;25.63;13.13;;;;;;;-2.19;100.00;98057.03;5018090;28;20038;-73
2024/01/17 05:47:28;;;;;;;26.75;13.32;;;;;;;-2.26;100.00;98051.56;4991281;28;20060;-73
2024/01/17 05:49:53;;;;;;;25.58;12.90;;;;;;;-2.38;100.00;98019.59;5008405;28;20022;-73
2024/01/17 05:52:19;;;;;;;;;;;;;;;-2.40;100.00;98031.16;5007582;28;20519;-72
2024/01/17 05:54:44;;;;;;;;;;;;;;;-2.36;100.00;98050.81;5025235;28;20291;-72
2024/01/17 05:57:09;;;;;;;34.43;14.87;;;;;;;-2.33;100.00;98064.41;4998875;28;19913;-72
2024/01/17 05:59:34;;;;;;;;;;;;;;;-2.51;100.00;98028.75;5007842;28;20053;-73
2024/01/17 06:02:00;;;;;;;27.20;14.67;;;;;;;-2.36;100.00;98092.63;5025524;28;19920;-72
2024/01/17 06:04:25;;;;;;;;;;;;;;;-2.42;100.00;98072.28;5011000;28;20798;-72
2024/01/17 06:06:50;;;;;;;30.93;14.40;;;;;;;-2.37;100.00;98077.91;5010701;28;20399;-73
2024/01/17 06:09:16;;;;;;;;;;;;;;;-2.45;100.00;98065.56;5011338;28;20029;-72
2024/01/17 06:11:41;;;;;;;25.37;13.77;;;;;;;-2.55;100.00;98065.63;5028429;28;19921;-72
2024/01/17 06:14:06;;;;;;;;;;;;;;;-2.43;100.00;98104.63;5028423;28;20533;-72
2024/01/17 06:16:32;;;;;;;23.97;12.80;;;;;;;-2.55;100.00;98070.84;5028327;28;19913;-72
2024/01/17 06:18:59;;;;;;;;;;;;;;;-2.44;100.00;98087.28;5028286;28;20030;-73
2024/01/17 06:21:25;;;;;;;28.50;13.23;;;;;;;-2.60;100.00;98052.19;5010643;28;19912;-72
2024/01/17 06:23:51;;;;;;;27.50;12.52;;;;;;;-2.48;100.00;98081.56;5010298;28;20041;-72
2024/01/17 06:26:16;;;;;;;;;;;;;;;-2.57;100.00;98051.88;5028664;28;20056;-72
2024/01/17 06:28:42;;;;;;;24.40;11.75;;;;;;;-2.51;100.00;98073.97;5028386;28;20360;-73
2024/01/17 06:31:07;;;;;;;;;;;;;;;-2.58;100.00;98034.53;5028707;28;20123;-73
2024/01/17 06:33:33;;;;;;;32.47;14.50;;;;;;;-2.61;100.00;98029.63;5010425;28;20015;-72
2024/01/17 06:35:58;;;;;;;;;;;;;;;-2.55;100.00;98042.13;5028597;28;20025;-73
2024/01/17 06:38:24;;;;;;;26.10;12.02;;;;;;;-2.47;100.00;98045.78;5028376;28;20058;-72
2024/01/17 06:40:50;;;;;;;;;;;;;;;-2.44;100.00;98016.75;5010764;28;20039;-72
2024/01/17 06:43:16;;;;;;;22.00;11.77;;;;;;;-2.42;100.00;97997.34;5018195;23;20048;-83
2024/01/17 06:45:41;;;;;;;21.77;12.75;;;;;;;-2.38;100.00;97993.47;4995982;28;20586;-84
2024/01/17 06:48:07;;;;;;;;;;;;;;;-2.48;100.00;97947.47;4997834;28;20045;-83
2024/01/17 06:50:32;;;;;;;;;;;;;;;-2.48;100.00;97948.31;5014771;28;19917;-84
2024/01/17 06:52:57;;;;;;;24.03;12.50;;;;;;;-2.48;100.00;97937.84;5014027;28;19909;-84
2024/01/17 06:55:23;;;;;;;;;;;;;;;-2.44;100.00;97931.34;4998646;28;20029;-84
2024/01/17 06:57:48;;;;;;;28.70;12.10;;;;;;;-2.28;100.00;97950.75;4998354;28;20371;-85
2024/01/17 07:00:13;;;;;;;;;;;;;;;-2.28;100.00;97898.50;4998297;28;20153;-84
2024/01/17 07:02:42;;;;;;;26.17;12.73;;;;;;;-2.40;100.00;97858.72;4999108;28;19913;-84
2024/01/17 07:05:08;;;;;;;27.63;13.27;;;;;;;-2.30;100.00;97880.34;4997158;28;20568;-83
2024/01/17 07:07:33;;;;;;;27.15;11.55;;;;;;;-2.30;100.00;97875.13;5014958;28;20024;-84
2024/01/17 07:09:58;;;;;;;;;;;;;;;-2.21;100.00;97845.47;4998923;28;20045;-83
2024/01/17 07:12:24;;;;;;;20.63;11.27;;;;;;;-2.03;100.00;97834.16;4999346;28;19928;-84
2024/01/17 07:14:49;;;;;;;;;;;;;;;-2.19;100.00;97765.09;5015682;28;20033;-83
2024/01/17 07:17:15;;;;;;;25.20;10.45;;;;;;;-2.13;100.00;97781.97;4999212;28;20023;-83
2024/01/17 07:19:40;;;;;;;;;;;;;;;-2.31;100.00;97701.00;5016088;28;20277;-83
2024/01/17 07:22:06;;;;;;;23.83;10.70;;;;;;;-2.15;100.00;97763.00;4998191;28;19913;-82
2024/01/17 07:24:32;;;;;;;25.60;11.43;;;;;;;-2.25;100.00;97744.00;5014930;28;20033;-83
2024/01/17 07:26:57;;;;;;;;;;;;;;;-2.26;100.00;97756.25;5014675;28;20433;-86
2024/01/17 07:29:22;;;;;;;29.02;10.85;;;;;;;-2.14;100.00;97765.44;4998296;28;19917;-84
2024/01/17 07:31:48;;;;;;;19.95;10.05;;;;;;;-2.11;100.00;97756.47;4999171;28;20025;-84
2024/01/17 07:34:13;;;;;;;;;;;;;;;-2.17;100.00;97713.50;5015802;28;20043;-83
2024/01/17 07:36:38;;;;;;;20.73;10.60;;;;;;;-2.14;100.00;97752.38;5000133;28;20011;-82
2024/01/17 07:39:05;;;;;;;24.58;11.43;;;;;;;-2.09;100.00;97757.16;5016032;28;20287;-84
2024/01/17 07:41:30;;;;;;;19.98;10.15;;;;;;;-2.10;100.00;97733.78;5016103;28;20029;-83
2024/01/17 07:43:55;;;;;;;21.83;10.52;;;;;;;-2.06;100.00;97756.00;5014825;28;20044;-84
2024/01/17 07:46:21;;;;;;;;;;;;;;;-2.11;100.00;97717.25;5015349;28;20092;-83
2024/01/17 07:48:46;;;;;;;19.77;11.20;;;;;;;-2.17;100.00;97718.72;4997665;28;19912;-83
2024/01/17 07:51:12;;;;;;;;;;;;;;;-2.03;100.00;97750.50;5014827;28;20041;-85
2024/01/17 07:53:38;;;;;;;16.67;9.35;;;;;;;-2.07;100.00;97739.50;5005673;28;19998;-85
2024/01/17 07:56:04;;;;;;;19.88;10.15;;;;;;;-2.07;100.00;97728.25;5009464;28;20064;-84
2024/01/17 07:58:30;;;;;;;19.48;10.68;;;;;;;-2.15;100.00;97682.78;4997945;28;20034;-83
2024/01/17 08:00:55;;;;;;;26.95;13.55;;;;;;;-2.05;100.00;97718.44;4997964;28;20033;-84
2024/01/17 08:03:21;;;;;;;20.05;9.65;;;;;;;-1.99;100.00;97739.56;5014620;28;20045;-83
2024/01/17 08:05:46;;;;;;;27.13;11.43;;;;;;;-2.05;100.00;97705.38;4998001;28;20021;-83
2024/01/17 08:08:12;;;;;;;;;;;;;;;-1.97;100.00;97745.47;5032566;28;20069;-85
2024/01/17 08:10:37;;;;;;;20.63;10.80;;;;;;;-2.04;100.00;97692.13;5005537;28;19924;-84
2024/01/17 08:13:03;;;;;;;;;;;;;;;-2.01;100.00;97727.63;4996191;28;20033;-84
2024/01/17 08:15:28;;;;;;;20.02;10.65;;;;;;;-1.97;100.00;97744.63;5032551;28;20330;-85
2024/01/17 08:17:54;;;;;;;;;;;;;;;-1.98;100.00;97740.38;4999576;28;20021;-85
2024/01/17 08:20:19;;;;;;;17.20;9.73;;;;;;;-2.08;100.00;97753.56;5014539;28;20012;-84
2024/01/17 08:22:44;;;;;;;;;;;;;;;-1.88;100.00;97796.00;4999338;28;20029;-85
2024/01/17 08:25:10;;;;;;;;;;;;;;;-1.92;100.00;97748.44;5011219;28;19970;-85
2024/01/17 08:27:36;;;;;;;22.17;10.10;;;;;;;-1.86;100.00;97749.56;5032023;28;20371;-84
2024/01/17 08:30:04;;;;;;;;;;;;;;;-1.86;100.00;97712.97;5029405;28;20037;-85
2024/01/17 08:32:29;;;;;;;20.60;9.45;;;;;;;-1.93;100.00;97686.63;4996182;28;20375;-85
2024/01/17 08:34:55;;;;;;;21.10;9.98;;;;;;;-2.01;100.00;97649.19;4994773;28;20032;-85
2024/01/17 08:37:21;;;;;;;;;;;;;;;-1.97;100.00;97671.41;5011126;28;20356;-87
2024/01/17 08:39:46;;;;;;;21.67;10.13;;;;;;;-1.93;100.00;97691.84;5011664;28;19913;-84
2024/01/17 08:42:12;;;;;;;;;;;;;;;-1.82;100.00;97667.22;5004077;28;20430;-85
2024/01/17 08:44:40;;;;;;;17.23;9.52;;;;;;;-1.66;100.00;97670.84;5011912;28;19912;-85
2024/01/17 08:47:07;;;;;;;27.95;11.75;;;;;;;-1.79;100.00;97626.84;4986830;28;20030;-84
2024/01/17 08:49:33;;;;;;;17.73;9.18;;;;;;;-1.91;100.00;97584.50;4996423;28;20404;-85
2024/01/17 08:51:59;;;;;;;20.77;9.27;;;;;;;-1.86;100.00;97573.56;4995632;28;20056;-85
2024/01/17 08:54:25;;;;;;;17.63;8.45;;;;;;;-1.79;100.00;97580.59;5011733;28;20124;-85
2024/01/17 08:56:51;;;;;;;17.17;9.05;;;;;;;-1.73;100.00;97590.41;4996593;28;20490;-83
2024/01/17 08:59:16;;;;;;;19.05;8.93;;;;;;;-1.74;100.00;97549.53;4993874;28;20488;-84
2024/01/17 09:01:41;;;;;;;;;;;;;;;-1.55;100.00;97571.13;4990975;28;20116;-84
2024/01/17 09:04:07;;;;;;;18.00;8.17;;;;;;;-1.74;100.00;97502.44;5006038;28;19919;-85
2024/01/17 09:06:32;;;;;;;;;;;;;;;-1.47;100.00;97542.34;4991105;28;20079;-84
2024/01/17 09:08:57;;;;;;;22.88;9.57;;;;;;;-1.82;100.00;97404.91;5024988;28;19913;-84
2024/01/17 09:11:23;;;;;;;;;;;;;;;-1.53;100.00;97503.75;4991558;28;20069;-84
2024/01/17 09:13:48;;;;;;;17.93;8.27;;;;;;;-1.71;100.00;97418.44;4999088;28;19920;-84
2024/01/17 09:16:14;;;;;;;;;;;;;;;-1.67;100.00;97389.31;4990332;28;20046;-84
2024/01/17 09:18:39;;;;;;;11.18;6.57;;;;;;;-1.72;100.00;97340.94;5007860;28;19956;-84
2024/01/17 09:21:05;;;;;;;;;;;;;;;-1.70;100.00;97344.22;5005684;28;20040;-84
2024/01/17 09:23:30;;;;;;;12.32;6.63;;;;;;;-1.64;100.00;97347.97;5008336;28;19917;-84
2024/01/17 09:25:55;;;;;;;;;;;;;;;-1.73;100.00;97339.31;4990552;28;20037;-82
2024/01/17 09:28:20;;;;;;;12.20;7.43;;;;;;;-1.79;100.00;97331.31;5005485;28;19924;-84
2024/01/17 09:30:46;;;;;;;;;;;;;;;-1.80;100.00;97321.88;4991378;28;20045;-83
2024/01/17 09:33:11;;;;;;;14.43;8.10;;;;;;;-1.71;100.00;97375.75;4989945;28;20320;-84
2024/01/17 09:35:38;;;;;;;;;;;;;;;-1.73;100.00;97355.03;5006953;28;20508;-84
2024/01/17 09:38:06;;;;;;;17.50;8.02;;;;;;;-1.71;100.00;97357.44;5008723;28;20279;-83
2024/01/17 09:40:31;;;;;;;13.48;7.15;;;;;;;-1.64;100.00;97362.81;4995958;28;20127;-83
2024/01/17 09:42:57;;;;;;;21.45;7.47;;;;;;;-1.69;100.00;97308.41;5010042;28;20472;-84
2024/01/17 09:45:22;;;;;;;17.10;8.88;;;;;;;-1.47;100.00;97372.28;5010752;28;20400;-84
2024/01/17 09:47:48;;;;;;;;;;;;;;;-1.54;100.00;97282.38;5015610;28;20013;-82
2024/01/17 09:50:14;;;;;;;15.45;7.57;;;;;;;-1.79;100.00;97211.84;4997988;28;19918;-83
2024/01/17 09:52:41;;;;;;;17.48;7.60;;;;;;;-1.53;100.00;97294.44;4998850;28;20033;-84
2024/01/17 09:55:08;;;;;;;22.38;8.20;;;;;;;-1.54;100.00;97248.34;4998440;28;20618;-83
2024/01/17 09:57:39;;;;;;;13.82;6.50;;;;;;;-1.44;100.00;97233.25;4998581;28;20025;-85
2024/01/17 10:00:09;;;;;;;17.50;6.55;;;;;;;-1.18;100.00;97255.66;5008927;28;20033;-85
2024/01/17 10:02:41;;;;;;;11.13;6.68;;;;;;;-1.41;100.00;97130.03;5014906;28;20037;-85
2024/01/17 10:05:09;;;;;;;12.45;6.22;;;;;;;-1.47;100.00;97115.06;5014229;28;20041;-84
2024/01/17 10:07:36;;;;;;;10.43;5.55;;;;;;;-1.41;100.00;97162.25;4991373;28;20516;-85
2024/01/17 10:10:01;;;;;;;15.15;7.20;;;;;;;-1.29;100.00;97183.59;4998498;28;20088;-85
2024/01/17 10:12:27;;;;;;;14.57;5.60;;;;;;;-1.36;100.00;97131.16;4999077;28;20064;-83
2024/01/17 10:14:52;;;;;;;14.15;6.32;;;;;;;-1.23;100.00;97140.22;5014718;28;20037;-84
2024/01/17 10:17:19;;;;;;;15.70;7.28;;;;;;;-1.27;100.00;97140.53;4998214;28;20021;-83
2024/01/17 10:19:44;;;;;;;16.42;7.45;;;;;;;-1.25;100.00;97134.34;5032403;28;20034;-84
2024/01/17 10:22:10;;;;;;;12.98;5.63;;;;;;;-1.21;100.00;97159.97;4997832;28;20083;-84
2024/01/17 10:24:36;;;;;;;;;;;;;;;-1.30;100.00;97129.63;5032348;28;20511;-83
2024/01/17 10:27:03;;;;;;;12.32;5.82;;;;;;;-1.22;100.00;97107.81;5014407;28;19917;-85
2024/01/17 10:29:32;;;;;;;15.55;7.13;;;;;;;-1.16;100.00;97101.88;4990381;28;20116;-83
2024/01/17 10:31:59;;;;;;;16.00;5.57;;;;;;;-1.19;100.00;97052.50;4998729;28;20128;-84
2024/01/17 10:34:28;;;;;;;15.48;6.93;;;;;;;-1.15;100.00;97080.75;5013951;28;20507;-84
2024/01/17 10:36:54;;;;;;;13.38;6.32;;;;;;;-1.27;100.00;97061.22;5014802;28;20037;-84
2024/01/17 10:39:20;;;;;;;12.25;6.25;;;;;;;-1.04;100.00;97118.78;4998302;28;20033;-83
2024/01/17 10:41:50;;;;;;;14.55;8.00;;;;;;;-1.24;100.00;97020.78;5014558;28;20045;-83
2024/01/17 10:44:20;;;;;;;15.68;6.00;;;;;;;-1.01;100.00;97133.31;5013867;28;20115;-83
2024/01/17 10:46:50;;;;;;;8.68;5.38;;;;;;;-0.85;100.00;97309.44;4997947;28;20758;-83
2024/01/17 10:49:17;;;;;;;11.52;5.70;;;;;;;-0.76;100.00;97191.53;5030740;28;20041;-83
2024/01/17 10:52:09;;;;;;;10.55;6.10;;;;;;;-1.01;100.00;97099.28;5031815;28;20033;-82
2024/01/17 10:54:50;;;;;;;12.15;5.50;;;;;;;-1.19;100.00;97002.78;4990948;28;20037;-83
2024/01/17 10:57:19;;;;;;;12.63;6.78;;;;;;;-1.11;100.00;97076.78;4997718;28;20052;-84
2024/01/17 10:59:49;;;;;;;12.02;6.05;;;;;;;-1.12;100.00;97090.88;5014092;28;20472;-83
2024/01/17 11:02:22;;;;;;;13.23;5.43;;;;;;;-1.09;100.00;97100.97;5016313;28;20127;-85
2024/01/17 11:05:10;;;;;;;11.77;6.63;;;;;;;-1.33;100.00;97054.09;5014397;28;20083;-84
2024/01/17 11:07:35;;;;;;;13.10;5.63;;;;;;;-1.20;100.00;97158.19;5007794;28;20119;-85
2024/01/17 11:10:02;;;;;;;;;;;;;;;-0.85;100.00;97279.81;5015409;28;20037;-84
2024/01/17 11:12:33;;;;;;;17.15;6.55;;;;;;;-0.88;100.00;97223.38;5014445;28;19917;-85
2024/01/17 11:15:05;;;;;;;15.55;6.25;;;;;;;-0.84;100.00;97197.66;5014692;28;20068;-85
2024/01/17 11:17:35;;;;;;;12.02;5.18;;;;;;;-1.00;100.00;97114.00;5031102;28;20167;-84
2024/01/17 11:20:07;;;;;;;11.30;5.72;;;;;;;-0.96;100.00;97103.00;5014246;28;20041;-83
2024/01/17 11:22:33;;;;;;;20.13;6.18;;;;;;;-0.88;100.00;97134.31;5006787;28;20041;-83
2024/01/17 11:25:07;;;;;;;;;;;;;;;-0.85;100.00;97146.25;4998768;28;20029;-84
2024/01/17 11:27:40;;;;;;;9.70;4.82;;;;;;;-0.85;100.00;97117.44;5007244;28;20295;-84
2024/01/17 11:30:06;;;;;;;12.73;5.43;;;;;;;-0.81;100.00;97136.25;4998599;28;20076;-85
2024/01/17 11:33:18;;;;;;;10.85;5.43;;;;;;;-0.85;100.00;97160.16;5014743;28;20037;-84
2024/01/17 11:35:50;;;;;;;14.82;6.50;;;;;;;-0.98;100.00;97138.22;4994648;28;20152;-85
2024/01/17 11:38:22;;;;;;;10.85;5.55;;;;;;;-0.86;100.00;97226.63;4998167;28;20034;-84